createdAt,value
2018-04-27T00:01:31.750Z,5.50
2018-04-27T00:04:00.071Z,5.43
2018-04-27T00:06:27.630Z,7.00
2018-04-27T00:08:55.180Z,6.70
2018-04-27T00:11:22.734Z,7.55
2018-04-27T00:13:50.301Z,6.28
2018-04-27T00:16:17.834Z,5.32
2018-04-27T00:18:45.357Z,9.82
2018-04-27T00:21:12.918Z,9.93
2018-04-27T00:23:40.441Z,8.48
2018-04-27T00:26:08.755Z,8.00
2018-04-27T00:28:36.307Z,5.05
2018-04-27T00:31:03.862Z,7.65
2018-04-27T00:33:31.480Z,7.62
2018-04-27T00:35:59.025Z,8.00
2018-04-27T00:38:26.558Z,7.45
2018-04-27T00:40:54.111Z,9.98
2018-04-27T00:43:22.407Z,7.22
2018-04-27T00:45:49.939Z,10.40
2018-04-27T00:48:17.457Z,4.78
2018-04-27T00:50:45.007Z,9.80
2018-04-27T00:53:14.369Z,6.50
2018-04-27T00:55:41.893Z,5.90
2018-04-27T00:58:09.423Z,6.35
2018-04-27T01:00:36.974Z,5.62
2018-04-27T01:03:05.293Z,4.90
2018-04-27T01:05:32.847Z,9.35
2018-04-27T01:08:00.393Z,9.13
2018-04-27T01:10:27.998Z,6.28
2018-04-27T01:12:55.651Z,6.75
2018-04-27T01:15:23.187Z,7.95
2018-04-27T01:17:51.478Z,8.10
2018-04-27T01:20:19.021Z,9.43
2018-04-27T01:22:47.342Z,9.73
2018-04-27T01:25:14.902Z,8.13
2018-04-27T01:27:42.434Z,7.70
2018-04-27T01:30:10.755Z,7.37
2018-04-27T01:32:38.290Z,10.38
2018-04-27T01:35:05.840Z,7.45
2018-04-27T01:37:34.143Z,11.18
2018-04-27T01:40:02.024Z,9.32
2018-04-27T01:42:29.583Z,8.77
2018-04-27T01:44:57.122Z,12.30
2018-04-27T01:47:25.432Z,10.75
2018-04-27T01:49:52.949Z,9.57
2018-04-27T01:52:20.507Z,14.10
2018-04-27T01:54:48.057Z,14.07
2018-04-27T01:57:15.591Z,15.65
2018-04-27T01:59:43.113Z,14.87
2018-04-27T02:02:11.414Z,15.75
2018-04-27T02:04:38.957Z,11.15
2018-04-27T02:07:07.254Z,19.35
2018-04-27T02:09:35.550Z,11.63
2018-04-27T02:12:03.107Z,10.18
2018-04-27T02:14:30.651Z,10.52
2018-04-27T02:16:58.971Z,10.27
2018-04-27T02:19:26.512Z,11.35
2018-04-27T02:21:54.052Z,9.95
2018-04-27T02:24:22.350Z,7.47
2018-04-27T02:26:50.642Z,9.80
2018-04-27T02:29:18.195Z,10.05
2018-04-27T02:31:46.500Z,7.43
2018-04-27T02:34:14.026Z,9.35
2018-04-27T02:36:42.402Z,11.10
2018-04-27T02:39:09.945Z,12.68
2018-04-27T02:41:37.469Z,7.97
2018-04-27T02:44:05.005Z,5.78
2018-04-27T02:46:33.302Z,7.00
2018-04-27T02:49:00.854Z,9.15
2018-04-27T02:51:28.414Z,11.00
2018-04-27T02:53:56.711Z,7.82
2018-04-27T02:56:24.294Z,7.57
2018-04-27T02:58:51.846Z,7.20
2018-04-27T03:01:19.375Z,9.80
2018-04-27T03:03:46.915Z,9.10
2018-04-27T03:06:14.470Z,8.38
2018-04-27T03:08:42.013Z,9.63
2018-04-27T03:11:09.533Z,6.43
2018-04-27T03:13:37.076Z,10.00
2018-04-27T03:16:04.634Z,8.40
2018-04-27T03:18:32.191Z,10.52
2018-04-27T03:20:59.798Z,13.52
2018-04-27T03:23:28.088Z,13.85
2018-04-27T03:25:56.406Z,14.00
2018-04-27T03:28:23.943Z,13.35
2018-04-27T03:30:51.474Z,17.42
2018-04-27T03:33:19.014Z,17.95
2018-04-27T03:35:46.560Z,19.37
2018-04-27T03:38:14.118Z,14.20
2018-04-27T03:40:41.650Z,18.75
2018-04-27T03:43:09.978Z,16.25
2018-04-27T03:45:37.537Z,14.02
2018-04-27T03:48:05.102Z,23.75
2018-04-27T03:50:32.658Z,20.23
2018-04-27T03:53:00.253Z,18.87
2018-04-27T03:55:27.810Z,14.80
2018-04-27T03:57:55.346Z,10.88
2018-04-27T04:00:34.749Z,15.23
2018-04-27T04:03:14.798Z,21.20
2018-04-27T04:05:43.129Z,14.13
2018-04-27T04:08:10.688Z,10.75
2018-04-27T04:10:38.212Z,10.35
2018-04-27T04:13:05.767Z,13.62
2018-04-27T04:15:34.097Z,13.15
2018-04-27T04:18:01.613Z,7.28
2018-04-27T04:20:29.909Z,11.55
2018-04-27T04:22:57.438Z,14.40
2018-04-27T04:25:24.966Z,14.68
2018-04-27T04:27:52.499Z,11.75
2018-04-27T04:30:20.054Z,11.25
2018-04-27T04:32:47.586Z,15.75
2018-04-27T04:35:15.135Z,20.10
2018-04-27T04:37:42.691Z,13.60
2018-04-27T04:40:10.213Z,13.23
2018-04-27T04:42:37.766Z,11.70
2018-04-27T04:45:06.104Z,13.70
2018-04-27T04:47:33.650Z,19.87
2018-04-27T04:50:01.226Z,16.30
2018-04-27T04:52:28.819Z,22.20
2018-04-27T04:54:56.355Z,18.92
2018-04-27T04:57:23.917Z,13.18
2018-04-27T04:59:51.450Z,18.05
2018-04-27T05:02:18.993Z,16.35
2018-04-27T05:04:47.315Z,18.92
2018-04-27T05:07:14.906Z,16.67
2018-04-27T05:09:42.470Z,18.37
2018-04-27T05:12:10.002Z,17.70
2018-04-27T05:14:37.527Z,21.27
2018-04-27T05:17:05.823Z,17.73
2018-04-27T05:19:33.377Z,31.00
2018-04-27T05:22:01.704Z,14.43
2018-04-27T05:24:29.238Z,26.65
2018-04-27T05:26:56.784Z,16.50
2018-04-27T05:29:25.114Z,17.77
2018-04-27T05:31:52.680Z,16.40
2018-04-27T05:34:20.250Z,18.95
2018-04-27T05:36:47.802Z,20.12
2018-04-27T05:39:15.374Z,24.85
2018-04-27T05:41:42.946Z,15.95
2018-04-27T05:44:10.525Z,15.05
2018-04-27T05:46:38.100Z,22.13
2018-04-27T05:49:05.719Z,18.55
2018-04-27T05:51:33.267Z,14.52
2018-04-27T05:54:00.809Z,19.35
2018-04-27T05:56:29.113Z,19.98
2018-04-27T05:58:56.694Z,16.05
2018-04-27T06:01:24.236Z,20.67
2018-04-27T06:04:03.627Z,22.75
2018-04-27T06:06:31.172Z,23.77
2018-04-27T06:08:58.710Z,27.85
2018-04-27T06:11:26.243Z,25.42
2018-04-27T06:13:54.562Z,29.15
2018-04-27T06:16:22.105Z,42.53
2018-04-27T06:18:49.629Z,28.40
2018-04-27T06:21:17.197Z,33.90
2018-04-27T06:23:44.735Z,30.90
2018-04-27T06:26:12.300Z,36.33
2018-04-27T06:28:48.598Z,18.15
2018-04-27T06:31:16.925Z,35.10
2018-04-27T06:33:44.468Z,30.85
2018-04-27T06:36:12.022Z,31.85
2018-04-27T06:38:40.373Z,29.70
2018-04-27T06:41:07.949Z,39.28
2018-04-27T06:43:35.529Z,112.22
2018-04-27T06:46:03.845Z,20.48
2018-04-27T06:48:31.398Z,18.80
2018-04-27T06:50:58.958Z,13.90
2018-04-27T06:53:26.521Z,14.90
2018-04-27T06:55:54.093Z,12.63
2018-04-27T06:58:21.683Z,14.87
2018-04-27T07:00:49.259Z,11.43
2018-04-27T07:03:16.889Z,13.98
2018-04-27T07:05:44.445Z,10.52
2018-04-27T07:08:11.989Z,16.42
2018-04-27T07:10:40.346Z,14.50
2018-04-27T07:13:07.922Z,14.13
2018-04-27T07:15:36.273Z,17.60
2018-04-27T07:18:03.835Z,12.88
2018-04-27T07:20:31.418Z,6.85
2018-04-27T07:22:58.982Z,9.52
2018-04-27T07:25:26.559Z,15.60
2018-04-27T07:27:54.886Z,9.63
2018-04-27T07:30:22.447Z,11.98
2018-04-27T07:32:49.986Z,11.07
2018-04-27T07:35:18.297Z,6.00
2018-04-27T07:37:45.872Z,6.97
2018-04-27T07:40:13.442Z,10.15
2018-04-27T07:42:41.039Z,8.80
2018-04-27T07:45:08.759Z,8.90
2018-04-27T07:47:36.260Z,9.57
2018-04-27T07:50:03.867Z,9.90
2018-04-27T07:52:31.432Z,8.52
2018-04-27T07:54:59.027Z,19.52
2018-04-27T07:57:26.605Z,17.35
2018-04-27T07:59:54.205Z,4.93
2018-04-27T08:02:22.606Z,8.80
2018-04-27T08:04:50.452Z,5.22
2018-04-27T08:07:18.068Z,5.55
2018-04-27T08:09:46.405Z,6.45
2018-04-27T08:12:14.728Z,7.15
2018-04-27T08:14:42.315Z,11.77
2018-04-27T08:17:09.916Z,11.32
2018-04-27T08:19:38.324Z,10.13
2018-04-27T08:22:05.899Z,6.35
2018-04-27T08:24:33.531Z,11.57
2018-04-27T08:27:01.876Z,5.78
2018-04-27T08:29:30.297Z,9.45
2018-04-27T08:31:57.851Z,8.63
2018-04-27T08:34:25.447Z,7.10
2018-04-27T08:36:52.992Z,14.90
2018-04-27T08:39:20.547Z,12.60
2018-04-27T08:41:48.113Z,6.93
2018-04-27T08:44:15.670Z,8.05
2018-04-27T08:46:43.221Z,5.70
2018-04-27T08:49:10.788Z,10.90
2018-04-27T08:51:38.386Z,10.60
2018-04-27T08:54:06.711Z,11.95
2018-04-27T08:56:34.266Z,9.55
2018-04-27T08:59:01.906Z,10.02
2018-04-27T09:01:29.443Z,8.80
2018-04-27T09:03:57.026Z,10.65
2018-04-27T09:06:25.391Z,8.25
2018-04-27T09:08:53.722Z,17.70
2018-04-27T09:11:21.343Z,21.02
2018-04-27T09:13:49.660Z,23.38
2018-04-27T09:16:17.286Z,9.73
2018-04-27T09:18:44.754Z,6.95
2018-04-27T09:21:12.316Z,25.83
2018-04-27T09:23:40.623Z,6.25
2018-04-27T09:26:08.198Z,6.03
2018-04-27T09:28:35.738Z,5.45
2018-04-27T09:31:04.080Z,4.15
2018-04-27T09:33:31.710Z,10.77
2018-04-27T09:35:59.242Z,7.15
2018-04-27T09:38:27.561Z,5.82
2018-04-27T09:40:55.149Z,4.80
2018-04-27T09:43:22.781Z,7.25
2018-04-27T09:45:50.338Z,4.97
2018-04-27T09:48:17.922Z,4.68
2018-04-27T09:50:45.495Z,11.43
2018-04-27T09:53:13.079Z,8.27
2018-04-27T09:55:40.618Z,8.15
2018-04-27T09:58:08.149Z,6.28
2018-04-27T10:00:36.511Z,13.98
2018-04-27T10:03:04.042Z,1.70
2018-04-27T10:05:31.604Z,8.23
2018-04-27T10:07:59.177Z,2.83
2018-04-27T10:10:26.774Z,8.02
2018-04-27T10:12:54.307Z,4.18
2018-04-27T10:15:21.849Z,4.55
2018-04-27T10:17:49.411Z,3.70
2018-04-27T10:20:16.967Z,7.82
2018-04-27T10:22:44.525Z,5.80
2018-04-27T10:25:12.095Z,18.05
2018-04-27T10:27:39.660Z,5.50
2018-04-27T10:30:07.243Z,10.52
2018-04-27T10:32:34.808Z,6.15
2018-04-27T10:35:02.400Z,6.68
2018-04-27T10:37:29.942Z,4.87
2018-04-27T10:39:57.521Z,12.68
2018-04-27T10:42:25.082Z,4.55
2018-04-27T10:44:52.652Z,7.62
2018-04-27T10:47:20.262Z,9.75
2018-04-27T10:49:47.860Z,9.77
2018-04-27T10:52:15.454Z,2.95
2018-04-27T10:54:43.030Z,8.75
2018-04-27T10:57:11.418Z,7.82
2018-04-27T10:59:39.741Z,3.25
2018-04-27T11:02:07.330Z,10.25
2018-04-27T11:04:34.888Z,14.13
2018-04-27T11:07:02.457Z,11.57
2018-04-27T11:09:30.011Z,6.32
2018-04-27T11:11:57.598Z,4.70
2018-04-27T11:14:25.134Z,7.20
2018-04-27T11:16:52.990Z,5.18
2018-04-27T11:19:20.309Z,8.52
2018-04-27T11:21:47.871Z,8.38
2018-04-27T11:24:15.439Z,8.70
2018-04-27T11:26:42.998Z,5.62
2018-04-27T11:29:10.520Z,6.15
2018-04-27T11:31:38.083Z,4.43
2018-04-27T11:34:05.653Z,8.63
2018-04-27T11:36:33.228Z,4.03
2018-04-27T11:39:00.781Z,6.95
2018-04-27T11:41:28.319Z,3.78
2018-04-27T11:43:55.878Z,11.38
2018-04-27T11:46:23.503Z,6.50
2018-04-27T11:48:51.907Z,6.10
2018-04-27T11:51:20.277Z,9.95
2018-04-27T11:53:47.879Z,5.40
2018-04-27T11:56:15.490Z,4.97
2018-04-27T11:58:43.058Z,3.33
2018-04-27T12:01:10.656Z,8.75
2018-04-27T12:03:39.000Z,6.12
2018-04-27T12:06:06.676Z,7.93
2018-04-27T12:08:34.237Z,10.82
2018-04-27T12:11:01.820Z,6.05
2018-04-27T12:13:29.390Z,5.43
2018-04-27T12:15:57.750Z,8.73
2018-04-27T12:18:25.358Z,8.98
2018-04-27T12:20:52.928Z,7.47
2018-04-27T12:23:20.509Z,3.90
2018-04-27T12:25:48.122Z,5.15
2018-04-27T12:28:15.686Z,5.95
2018-04-27T12:30:43.250Z,7.20
2018-04-27T12:33:25.792Z,6.10
2018-04-27T12:35:53.334Z,9.70
2018-04-27T12:38:21.749Z,3.95
2018-04-27T12:40:49.317Z,13.40
2018-04-27T12:43:16.933Z,12.65
2018-04-27T12:45:44.504Z,3.87
2018-04-27T12:48:12.823Z,6.18
2018-04-27T12:50:40.390Z,8.70
2018-04-27T12:53:07.979Z,10.18
2018-04-27T12:55:35.537Z,1.50
2018-04-27T12:58:03.109Z,4.32
2018-04-27T13:00:30.729Z,7.05
2018-04-27T13:02:58.266Z,4.90
2018-04-27T13:05:25.850Z,10.30
2018-04-27T13:07:54.188Z,4.57
2018-04-27T13:10:21.757Z,12.15
2018-04-27T13:12:49.300Z,4.97
2018-04-27T13:15:16.889Z,6.50
2018-04-27T13:17:44.445Z,6.60
2018-04-27T13:20:11.998Z,5.35
2018-04-27T13:22:39.556Z,4.97
2018-04-27T13:25:07.130Z,6.80
2018-04-27T13:27:34.653Z,9.82
2018-04-27T13:30:02.236Z,4.72
2018-04-27T13:32:29.766Z,3.40
2018-04-27T13:34:58.066Z,15.60
2018-04-27T13:37:25.614Z,4.60
2018-04-27T13:39:53.939Z,4.55
2018-04-27T13:42:21.563Z,4.87
2018-04-27T13:44:49.863Z,3.92
2018-04-27T13:47:17.451Z,6.45
2018-04-27T13:49:44.991Z,6.55
2018-04-27T13:52:12.586Z,5.68
2018-04-27T13:54:40.164Z,2.90
2018-04-27T13:57:07.759Z,8.68
2018-04-27T13:59:36.161Z,7.85
2018-04-27T14:02:03.759Z,3.47
2018-04-27T14:04:31.347Z,2.45
2018-04-27T14:06:58.987Z,6.80
2018-04-27T14:09:26.546Z,5.60
2018-04-27T14:11:54.130Z,5.70
2018-04-27T14:14:21.693Z,3.28
2018-04-27T14:16:49.282Z,7.22
2018-04-27T14:19:16.859Z,3.70
2018-04-27T14:21:45.173Z,4.00
2018-04-27T14:24:12.723Z,6.22
2018-04-27T14:26:40.282Z,4.90
2018-04-27T14:29:08.606Z,3.30
2018-04-27T14:31:36.133Z,3.95
2018-04-27T14:34:03.666Z,4.05
2018-04-27T14:36:31.252Z,5.72
2018-04-27T14:38:59.596Z,4.40
2018-04-27T14:41:27.162Z,4.72
2018-04-27T14:43:54.864Z,5.18
2018-04-27T14:46:23.163Z,5.95
2018-04-27T14:48:50.726Z,2.15
2018-04-27T14:51:18.326Z,6.07
2018-04-27T14:53:45.863Z,5.78
2018-04-27T14:56:13.449Z,6.12
2018-04-27T14:58:41.047Z,3.00
2018-04-27T15:01:08.619Z,4.70
2018-04-27T15:03:36.943Z,6.87
2018-04-27T15:06:04.494Z,4.75
2018-04-27T15:08:32.122Z,5.65
2018-04-27T15:10:59.709Z,5.20
2018-04-27T15:13:28.042Z,6.47
2018-04-27T15:15:55.603Z,3.35
2018-04-27T15:18:23.174Z,2.12
2018-04-27T15:20:50.746Z,8.40
2018-04-27T15:23:18.294Z,3.87
2018-04-27T15:25:45.853Z,4.65
2018-04-27T15:28:13.432Z,4.45
2018-04-27T15:30:40.987Z,10.23
2018-04-27T15:33:08.540Z,4.57
2018-04-27T15:35:36.110Z,4.07
2018-04-27T15:38:03.694Z,3.45
2018-04-27T15:40:31.257Z,10.18
2018-04-27T15:42:58.834Z,4.62
2018-04-27T15:45:26.402Z,2.22
2018-04-27T15:47:53.990Z,5.53
2018-04-27T15:50:21.592Z,6.37
2018-04-27T15:52:49.248Z,7.35
2018-04-27T15:55:16.779Z,2.67
2018-04-27T15:57:45.080Z,4.82
2018-04-27T16:00:12.684Z,4.50
2018-04-27T16:02:41.171Z,4.30
2018-04-27T16:05:08.765Z,4.62
2018-04-27T16:07:37.119Z,7.07
2018-04-27T16:10:04.702Z,3.85
2018-04-27T16:12:32.297Z,6.65
2018-04-27T16:14:59.881Z,16.40
2018-04-27T16:17:27.473Z,8.35
2018-04-27T16:19:55.051Z,6.10
2018-04-27T16:22:22.657Z,5.40
2018-04-27T16:24:51.006Z,3.33
2018-04-27T16:27:18.560Z,3.85
2018-04-27T16:29:46.112Z,4.30
2018-04-27T16:32:13.762Z,5.30
2018-04-27T16:34:41.355Z,2.58
2018-04-27T16:37:08.980Z,2.85
2018-04-27T16:39:36.587Z,4.47
2018-04-27T16:42:04.339Z,2.87
2018-04-27T16:44:32.642Z,2.37
2018-04-27T16:47:00.277Z,2.00
2018-04-27T16:49:27.840Z,4.70
2018-04-27T16:51:55.449Z,4.05
2018-04-27T16:54:23.834Z,6.78
2018-04-27T16:56:51.435Z,2.33
2018-04-27T16:59:19.059Z,4.57
2018-04-27T17:01:46.660Z,3.42
2018-04-27T17:04:14.244Z,3.05
2018-04-27T17:06:41.875Z,2.83
2018-04-27T17:09:10.203Z,2.00
2018-04-27T17:11:37.838Z,2.58
2018-04-27T17:14:05.399Z,3.97
2018-04-27T17:16:32.987Z,4.12
2018-04-27T17:19:00.551Z,3.37
2018-04-27T17:21:28.111Z,6.43
2018-04-27T17:23:55.681Z,5.85
2018-04-27T17:26:23.251Z,4.25
2018-04-27T17:28:50.929Z,5.95
2018-04-27T17:31:18.441Z,3.15
2018-04-27T17:33:46.015Z,5.15
2018-04-27T17:36:13.582Z,3.05
2018-04-27T17:38:41.172Z,5.30
2018-04-27T17:41:08.761Z,6.12
2018-04-27T17:43:36.344Z,4.53
2018-04-27T17:46:03.925Z,5.45
2018-04-27T17:48:31.561Z,6.87
2018-04-27T17:50:59.150Z,6.45
2018-04-27T17:53:27.469Z,8.98
2018-04-27T17:55:55.048Z,4.43
2018-04-27T17:58:22.633Z,4.35
2018-04-27T18:00:50.218Z,4.40
2018-04-27T18:03:18.542Z,6.55
2018-04-27T18:05:46.102Z,3.67
2018-04-27T18:08:13.673Z,2.92
2018-04-27T18:10:41.215Z,2.37
2018-04-27T18:13:08.775Z,3.17
2018-04-27T18:15:37.100Z,4.80
2018-04-27T18:18:04.750Z,2.40
2018-04-27T18:20:32.332Z,8.10
2018-04-27T18:22:59.929Z,4.45
2018-04-27T18:25:27.675Z,6.07
2018-04-27T18:27:55.195Z,4.30
2018-04-27T18:30:22.777Z,3.83
2018-04-27T18:32:50.384Z,4.80
2018-04-27T18:35:17.915Z,2.70
2018-04-27T18:37:45.484Z,2.92
2018-04-27T18:40:13.086Z,2.37
2018-04-27T18:42:41.485Z,3.08
2018-04-27T18:45:09.842Z,5.10
2018-04-27T18:47:37.479Z,3.55
2018-04-27T18:50:05.080Z,4.72
2018-04-27T18:52:32.695Z,3.78
2018-04-27T18:55:00.278Z,5.00
2018-04-27T18:57:27.850Z,4.78
2018-04-27T18:59:55.437Z,4.22
2018-04-27T19:02:23.085Z,4.03
2018-04-27T19:04:50.704Z,3.97
2018-04-27T19:07:20.313Z,3.17
2018-04-27T19:09:47.908Z,2.58
2018-04-27T19:12:15.509Z,3.25
2018-04-27T19:14:43.126Z,2.85
2018-04-27T19:17:13.640Z,2.97
2018-04-27T19:19:41.201Z,2.28
2018-04-27T19:22:08.810Z,1.83
2018-04-27T19:24:38.352Z,2.72
2018-04-27T19:27:05.943Z,4.18
2018-04-27T19:29:33.622Z,5.57
2018-04-27T19:32:01.151Z,6.03
2018-04-27T19:34:29.507Z,7.82
2018-04-27T19:36:57.070Z,6.53
2018-04-27T19:39:24.635Z,7.07
2018-04-27T19:41:52.194Z,12.57
2018-04-27T19:44:19.762Z,10.20
2018-04-27T19:46:47.317Z,10.25
2018-04-27T19:49:15.651Z,12.55
2018-04-27T19:51:43.998Z,12.65
2018-04-27T19:54:11.586Z,25.25
2018-04-27T19:56:39.918Z,17.45
2018-04-27T19:59:07.522Z,24.12
2018-04-27T20:01:35.943Z,24.80
2018-04-27T20:04:03.539Z,25.92
2018-04-27T20:06:31.131Z,16.87
2018-04-27T20:08:58.734Z,16.70
2018-04-27T20:11:26.440Z,15.95
2018-04-27T20:13:54.026Z,26.90
2018-04-27T20:16:40.907Z,9.75
2018-04-27T20:19:09.278Z,10.55
2018-04-27T20:21:37.732Z,15.02
2018-04-27T20:24:06.038Z,14.95
2018-04-27T20:26:33.621Z,14.60
2018-04-27T20:29:01.255Z,16.83
2018-04-27T20:31:28.843Z,15.85
2018-04-27T20:33:56.429Z,16.70
2018-04-27T20:36:24.058Z,23.08
2018-04-27T20:38:51.624Z,13.23
2018-04-27T20:41:19.194Z,24.75
2018-04-27T20:43:46.831Z,18.08
2018-04-27T20:46:14.422Z,18.00
2018-04-27T20:48:41.995Z,25.88
2018-04-27T20:51:09.568Z,19.35
2018-04-27T20:53:42.712Z,26.08
2018-04-27T20:56:11.064Z,18.05
2018-04-27T20:58:38.679Z,23.10
2018-04-27T21:01:06.250Z,20.08
2018-04-27T21:03:33.847Z,21.65
2018-04-27T21:06:01.412Z,21.73
2018-04-27T21:08:29.007Z,16.12
2018-04-27T21:10:57.369Z,13.10
2018-04-27T21:13:24.941Z,14.70
2018-04-27T21:15:52.528Z,12.25
2018-04-27T21:18:20.849Z,13.23
2018-04-27T21:20:48.424Z,12.25
2018-04-27T21:23:16.076Z,11.75
2018-04-27T21:25:43.646Z,10.52
2018-04-27T21:28:18.739Z,14.50
2018-04-27T21:30:48.555Z,12.70
2018-04-27T21:33:16.948Z,9.18
2018-04-27T21:35:51.124Z,11.65
2018-04-27T21:38:44.277Z,15.65
2018-04-27T21:44:24.673Z,11.52
2018-04-27T21:46:52.282Z,9.55
2018-04-27T21:49:19.877Z,16.33
2018-04-27T21:51:58.548Z,15.40
2018-04-27T21:54:30.543Z,14.30
2018-04-27T21:57:18.922Z,8.63
2018-04-27T22:02:46.001Z,13.50
2018-04-27T22:05:14.414Z,12.40
2018-04-27T22:07:43.922Z,22.17
2018-04-27T22:10:11.621Z,9.27
2018-04-27T22:12:40.738Z,12.95
2018-04-27T22:15:08.321Z,16.25
2018-04-27T22:17:35.909Z,12.18
2018-04-27T22:20:03.474Z,7.18
2018-04-27T22:22:31.061Z,11.65
2018-04-27T22:25:14.270Z,8.90
2018-04-27T22:27:41.829Z,10.77
2018-04-27T22:33:22.581Z,7.45
2018-04-27T22:35:50.167Z,8.65
2018-04-27T22:41:29.069Z,8.23
2018-04-27T22:43:56.620Z,6.20
2018-04-27T22:46:24.188Z,12.55
2018-04-27T22:48:52.613Z,14.05
2018-04-27T22:51:24.905Z,10.05
2018-04-27T22:53:59.110Z,11.27
2018-04-27T22:56:33.195Z,10.13
2018-04-27T22:59:00.835Z,10.05
2018-04-27T23:01:28.395Z,7.15
2018-04-27T23:03:57.669Z,9.63
2018-04-27T23:06:26.026Z,9.85
2018-04-27T23:08:53.635Z,8.85
2018-04-27T23:11:25.124Z,9.77
2018-04-27T23:14:06.389Z,9.75
2018-04-27T23:16:33.955Z,13.05
2018-04-27T23:19:01.510Z,9.05
2018-04-27T23:24:22.780Z,8.98
2018-04-27T23:26:50.366Z,7.28
2018-04-27T23:29:18.709Z,4.68
2018-04-27T23:31:46.328Z,5.97
2018-04-27T23:34:13.918Z,8.40
2018-04-27T23:36:41.508Z,7.93
2018-04-27T23:39:09.090Z,13.00
2018-04-27T23:41:37.406Z,6.15
2018-04-27T23:44:04.988Z,13.55
2018-04-27T23:46:32.596Z,6.80
2018-04-27T23:49:00.144Z,6.40
2018-04-27T23:51:27.710Z,6.05
2018-04-27T23:53:57.101Z,12.63
2018-04-27T23:56:31.152Z,25.25
2018-04-27T23:58:58.738Z,7.72
